createdAt,value
2018-07-31T00:00:50.671Z,99.90
2018-07-31T00:03:19.231Z,99.90
2018-07-31T00:05:47.746Z,99.90
2018-07-31T00:08:16.247Z,99.90
2018-07-31T00:10:44.954Z,99.90
2018-07-31T00:13:13.497Z,99.90
2018-07-31T00:15:42.013Z,99.90
2018-07-31T00:18:10.528Z,99.90
2018-07-31T00:20:39.188Z,99.90
2018-07-31T00:23:07.873Z,99.90
2018-07-31T00:25:36.366Z,99.90
2018-07-31T00:28:04.923Z,99.90
2018-07-31T00:30:33.466Z,99.90
2018-07-31T00:33:01.971Z,99.90
2018-07-31T00:35:30.824Z,99.90
2018-07-31T00:37:59.356Z,99.90
2018-07-31T00:40:27.958Z,99.90
2018-07-31T00:42:56.464Z,99.90
2018-07-31T00:45:25.009Z,99.90
2018-07-31T00:47:53.586Z,99.90
2018-07-31T00:50:22.121Z,99.90
2018-07-31T00:52:50.811Z,99.90
2018-07-31T00:55:19.413Z,99.90
2018-07-31T00:57:48.056Z,99.80
2018-07-31T01:00:16.746Z,99.60
2018-07-31T01:02:45.274Z,98.40
2018-07-31T01:05:13.913Z,98.30
2018-07-31T01:07:42.451Z,96.90
2018-07-31T01:10:10.965Z,96.80
2018-07-31T01:12:39.451Z,95.90
2018-07-31T01:15:07.964Z,96.20
2018-07-31T01:17:36.457Z,95.90
2018-07-31T01:20:05.402Z,95.80
2018-07-31T01:22:33.922Z,95.20
2018-07-31T01:25:02.480Z,96.40
2018-07-31T01:27:30.990Z,95.70
2018-07-31T01:29:59.488Z,96.00
2018-07-31T01:32:27.975Z,96.40
2018-07-31T01:34:56.470Z,96.50
2018-07-31T01:37:25.007Z,96.50
2018-07-31T01:39:53.685Z,97.40
2018-07-31T01:42:22.182Z,97.30
2018-07-31T01:44:50.761Z,97.10
2018-07-31T01:47:19.259Z,96.90
2018-07-31T01:49:47.918Z,97.10
2018-07-31T01:52:16.427Z,97.10
2018-07-31T01:54:45.497Z,98.80
2018-07-31T01:57:13.988Z,98.40
2018-07-31T01:59:42.521Z,98.60
2018-07-31T02:02:11.012Z,98.90
2018-07-31T02:04:39.561Z,99.90
2018-07-31T02:07:08.110Z,98.80
2018-07-31T02:09:36.599Z,98.60
2018-07-31T02:12:05.177Z,97.80
2018-07-31T02:14:33.692Z,98.80
2018-07-31T02:17:02.218Z,99.00
2018-07-31T02:21:58.914Z,99.10
2018-07-31T02:24:27.412Z,99.20
2018-07-31T02:26:55.930Z,99.60
2018-07-31T02:30:27.529Z,99.90
2018-07-31T02:32:56.033Z,99.60
2018-07-31T02:35:24.582Z,99.70
2018-07-31T02:37:53.196Z,99.90
2018-07-31T02:40:21.723Z,99.90
2018-07-31T02:42:50.237Z,99.80
2018-07-31T02:45:18.902Z,99.90
2018-07-31T02:47:47.427Z,99.20
2018-07-31T02:50:15.930Z,98.80
2018-07-31T02:52:44.472Z,99.00
2018-07-31T02:55:12.978Z,99.20
2018-07-31T02:57:42.058Z,99.00
2018-07-31T03:00:11.587Z,97.90
2018-07-31T03:02:40.147Z,98.30
2018-07-31T03:05:10.685Z,98.30
2018-07-31T03:07:39.198Z,98.50
2018-07-31T03:10:08.984Z,98.80
2018-07-31T03:12:37.484Z,98.50
2018-07-31T03:15:07.303Z,97.50
2018-07-31T03:17:35.837Z,97.30
2018-07-31T03:20:04.773Z,97.60
2018-07-31T03:22:33.650Z,97.70
2018-07-31T03:25:02.216Z,97.00
2018-07-31T03:27:30.722Z,96.90
2018-07-31T03:29:59.320Z,97.00
2018-07-31T03:32:28.507Z,97.10
2018-07-31T03:34:57.012Z,96.10
2018-07-31T03:37:25.681Z,96.40
2018-07-31T03:39:54.613Z,95.90
2018-07-31T03:42:23.963Z,95.90
2018-07-31T03:44:52.460Z,95.80
2018-07-31T03:47:21.122Z,95.50
2018-07-31T03:49:49.628Z,95.00
2018-07-31T03:52:18.237Z,95.30
2018-07-31T03:54:46.717Z,95.10
2018-07-31T03:57:15.249Z,95.40
2018-07-31T03:59:43.936Z,94.30
2018-07-31T04:02:12.523Z,94.10
2018-07-31T04:04:41.036Z,95.70
2018-07-31T04:07:09.597Z,93.70
2018-07-31T04:09:38.116Z,93.60
2018-07-31T04:12:06.686Z,92.60
2018-07-31T04:14:35.269Z,93.10
2018-07-31T04:17:03.860Z,91.40
2018-07-31T04:19:32.375Z,91.80
2018-07-31T04:22:00.897Z,92.30
2018-07-31T04:24:29.425Z,92.80
2018-07-31T04:26:57.914Z,93.10
2018-07-31T04:29:26.463Z,94.00
2018-07-31T04:31:54.978Z,94.00
2018-07-31T04:34:23.477Z,93.50
2018-07-31T04:36:52.044Z,93.50
2018-07-31T04:39:20.552Z,93.60
2018-07-31T04:41:49.035Z,92.90
2018-07-31T04:44:17.573Z,93.50
2018-07-31T04:46:46.082Z,93.70
2018-07-31T04:49:14.599Z,93.80
2018-07-31T04:51:43.190Z,92.80
2018-07-31T04:54:11.740Z,92.70
2018-07-31T04:59:08.532Z,92.10
2018-07-31T05:01:37.112Z,92.30
2018-07-31T05:04:05.609Z,92.70
2018-07-31T05:06:34.196Z,91.20
2018-07-31T05:09:02.866Z,91.00
2018-07-31T05:11:31.413Z,91.20
2018-07-31T05:13:59.933Z,89.90
2018-07-31T05:16:28.520Z,89.00
2018-07-31T05:18:57.032Z,88.70
2018-07-31T05:21:25.576Z,88.40
2018-07-31T05:23:54.070Z,88.50
2018-07-31T05:26:22.644Z,87.50
2018-07-31T05:28:51.230Z,87.40
2018-07-31T05:31:19.763Z,86.60
2018-07-31T05:33:48.296Z,86.00
2018-07-31T05:36:16.846Z,86.00
2018-07-31T05:38:45.469Z,86.70
2018-07-31T05:41:13.938Z,86.70
2018-07-31T05:43:42.493Z,86.00
2018-07-31T05:46:11.161Z,85.30
2018-07-31T05:48:39.706Z,83.80
2018-07-31T05:51:08.265Z,84.10
2018-07-31T05:53:36.767Z,84.80
2018-07-31T05:56:05.488Z,84.20
2018-07-31T05:58:34.057Z,82.50
2018-07-31T06:01:02.551Z,81.20
2018-07-31T06:03:31.158Z,80.60
2018-07-31T06:05:59.792Z,80.10
2018-07-31T06:08:28.467Z,78.00
2018-07-31T06:10:57.012Z,74.10
2018-07-31T06:13:25.565Z,72.70
2018-07-31T06:15:54.108Z,72.70
2018-07-31T06:18:22.712Z,72.00
2018-07-31T06:20:51.231Z,73.20
2018-07-31T06:23:19.883Z,72.70
2018-07-31T06:25:48.403Z,69.90
2018-07-31T06:28:16.976Z,69.60
2018-07-31T06:30:45.476Z,64.60
2018-07-31T06:33:13.956Z,64.30
2018-07-31T06:35:43.347Z,63.60
2018-07-31T06:38:11.855Z,61.70
2018-07-31T06:40:40.358Z,61.10
2018-07-31T06:43:09.039Z,60.20
2018-07-31T06:45:37.562Z,60.40
2018-07-31T06:48:06.078Z,57.70
2018-07-31T06:50:35.358Z,57.00
2018-07-31T06:53:04.018Z,58.50
2018-07-31T06:55:32.567Z,59.10
2018-07-31T06:58:01.196Z,57.90
2018-07-31T07:00:29.745Z,54.20
2018-07-31T07:02:58.245Z,51.70
2018-07-31T07:05:26.792Z,50.80
2018-07-31T07:07:55.314Z,53.20
2018-07-31T07:10:23.900Z,54.70
2018-07-31T07:12:52.464Z,57.60
2018-07-31T07:15:20.973Z,58.90
2018-07-31T07:17:49.496Z,59.50
2018-07-31T07:20:18.005Z,60.70
2018-07-31T07:22:46.522Z,60.40
2018-07-31T07:25:15.036Z,61.00
2018-07-31T07:27:43.562Z,61.40
2018-07-31T07:30:12.091Z,62.30
2018-07-31T07:32:40.625Z,62.30
2018-07-31T07:37:37.517Z,57.50
2018-07-31T07:40:06.120Z,56.00
2018-07-31T07:42:34.702Z,57.60
2018-07-31T07:45:03.280Z,56.60
2018-07-31T07:47:31.809Z,55.80
2018-07-31T07:50:00.350Z,57.20
2018-07-31T07:52:28.875Z,55.80
2018-07-31T07:54:57.381Z,56.00
2018-07-31T07:57:25.966Z,57.30
2018-07-31T07:59:54.518Z,54.70
2018-07-31T08:02:23.068Z,52.20
2018-07-31T08:04:51.754Z,51.40
2018-07-31T08:07:20.298Z,53.90
2018-07-31T08:09:48.809Z,57.10
2018-07-31T08:12:17.352Z,57.00
2018-07-31T08:17:14.100Z,59.70
2018-07-31T08:19:42.632Z,58.20
2018-07-31T08:22:11.228Z,56.20
2018-07-31T08:24:39.774Z,54.50
2018-07-31T08:27:08.286Z,50.10
2018-07-31T08:29:36.817Z,48.90
2018-07-31T08:32:05.355Z,52.30
2018-07-31T08:34:33.988Z,48.60
2018-07-31T08:37:02.500Z,48.00
2018-07-31T08:42:00.254Z,45.30
2018-07-31T08:44:28.768Z,43.50
2018-07-31T08:46:57.288Z,45.10
2018-07-31T08:49:25.825Z,47.50
2018-07-31T08:51:54.392Z,43.40
2018-07-31T08:54:23.118Z,46.30
2018-07-31T08:56:51.703Z,46.70
2018-07-31T08:59:20.348Z,46.60
2018-07-31T09:06:45.825Z,44.30
2018-07-31T09:09:14.331Z,46.00
2018-07-31T09:11:42.866Z,43.70
2018-07-31T09:14:11.964Z,43.40
2018-07-31T09:16:40.498Z,45.30
2018-07-31T09:19:09.060Z,46.60
2018-07-31T09:21:37.661Z,44.50
2018-07-31T09:24:06.182Z,39.80
2018-07-31T09:26:34.708Z,42.20
2018-07-31T09:29:03.245Z,41.00
2018-07-31T09:31:31.796Z,42.50
2018-07-31T09:34:00.317Z,47.00
2018-07-31T09:36:28.856Z,42.90
2018-07-31T09:38:57.412Z,42.20
2018-07-31T09:41:25.956Z,39.60
2018-07-31T09:43:54.474Z,40.30
2018-07-31T09:46:23.385Z,38.30
2018-07-31T09:48:51.944Z,37.50
2018-07-31T09:51:20.459Z,37.00
2018-07-31T09:53:48.977Z,39.00
2018-07-31T09:56:17.619Z,37.10
2018-07-31T09:58:46.135Z,37.00
2018-07-31T10:01:18.640Z,36.00
2018-07-31T10:03:47.761Z,35.30
2018-07-31T10:06:16.669Z,35.50
2018-07-31T10:08:45.280Z,31.60
2018-07-31T10:11:13.788Z,30.50
2018-07-31T10:13:42.319Z,32.90
2018-07-31T10:16:11.073Z,38.90
2018-07-31T10:18:39.600Z,36.40
2018-07-31T10:21:08.375Z,34.70
2018-07-31T10:23:36.932Z,30.20
2018-07-31T10:28:33.908Z,30.60
2018-07-31T10:31:02.485Z,28.20
2018-07-31T10:33:31.009Z,28.50
2018-07-31T10:35:59.520Z,28.30
2018-07-31T10:38:28.056Z,28.10
2018-07-31T10:40:56.604Z,26.40
2018-07-31T10:43:25.140Z,25.60
2018-07-31T10:45:53.739Z,27.50
2018-07-31T10:48:22.419Z,27.30
2018-07-31T10:50:50.951Z,27.40
2018-07-31T10:53:19.493Z,26.30
2018-07-31T10:55:48.034Z,24.90
2018-07-31T10:58:16.631Z,25.50
2018-07-31T11:00:45.215Z,24.70
2018-07-31T11:03:14.046Z,25.10
2018-07-31T11:05:42.552Z,26.00
2018-07-31T11:08:11.126Z,25.50
2018-07-31T11:10:39.662Z,24.40
2018-07-31T11:13:08.229Z,23.30
2018-07-31T11:15:36.809Z,24.50
2018-07-31T11:18:05.373Z,24.50
2018-07-31T11:20:33.899Z,23.50
2018-07-31T11:25:30.776Z,21.80
2018-07-31T11:27:59.340Z,20.40
2018-07-31T11:30:27.880Z,19.50
2018-07-31T11:32:56.574Z,18.80
2018-07-31T11:35:25.181Z,20.60
2018-07-31T11:37:53.713Z,22.60
2018-07-31T11:40:22.226Z,22.20
2018-07-31T11:42:51.433Z,20.20
2018-07-31T11:45:20.036Z,19.20
2018-07-31T11:47:48.620Z,18.00
2018-07-31T11:50:17.234Z,17.20
2018-07-31T11:52:45.729Z,19.00
2018-07-31T11:55:14.358Z,18.60
2018-07-31T11:57:42.892Z,17.80
2018-07-31T12:00:12.933Z,18.00
2018-07-31T12:02:41.735Z,18.10
2018-07-31T12:05:10.286Z,17.60
2018-07-31T12:07:38.969Z,18.30
2018-07-31T12:10:07.681Z,17.90
2018-07-31T12:12:36.189Z,17.60
2018-07-31T12:15:05.486Z,17.20
2018-07-31T12:17:34.027Z,16.00
2018-07-31T12:20:02.667Z,16.60
2018-07-31T12:22:31.206Z,16.40
2018-07-31T12:24:59.711Z,19.80
2018-07-31T12:27:28.348Z,20.90
2018-07-31T12:29:56.928Z,22.70
2018-07-31T12:32:25.537Z,18.90
2018-07-31T12:34:54.132Z,16.40
2018-07-31T12:37:22.682Z,17.80
2018-07-31T12:39:51.304Z,15.60
2018-07-31T12:42:19.855Z,16.40
2018-07-31T12:47:16.646Z,17.00
2018-07-31T12:49:45.161Z,16.70
2018-07-31T12:52:13.710Z,15.50
2018-07-31T12:54:42.226Z,17.50
2018-07-31T12:57:10.752Z,15.30
2018-07-31T12:59:39.301Z,16.70
2018-07-31T13:02:08.112Z,14.20
2018-07-31T13:04:36.624Z,18.40
2018-07-31T13:07:05.146Z,17.40
2018-07-31T13:09:33.681Z,16.90
2018-07-31T13:12:02.386Z,15.40
2018-07-31T13:14:30.932Z,15.80
2018-07-31T13:16:59.469Z,16.80
2018-07-31T13:19:27.999Z,15.40
2018-07-31T13:21:56.643Z,15.30
2018-07-31T13:24:25.424Z,16.70
2018-07-31T13:26:54.075Z,16.10
2018-07-31T13:29:22.639Z,15.10
2018-07-31T13:31:51.164Z,19.30
2018-07-31T13:34:19.687Z,16.70
2018-07-31T13:36:48.230Z,15.70
2018-07-31T13:39:16.821Z,14.30
2018-07-31T13:41:45.338Z,15.10
2018-07-31T13:44:14.062Z,15.20
2018-07-31T13:46:42.399Z,14.50
2018-07-31T13:49:11.249Z,13.30
2018-07-31T13:51:39.801Z,13.50
2018-07-31T13:54:08.286Z,15.30
2018-07-31T13:59:05.034Z,13.90
2018-07-31T14:01:33.561Z,14.50
2018-07-31T14:04:02.150Z,15.40
2018-07-31T14:06:30.740Z,15.40
2018-07-31T14:08:59.299Z,15.70
2018-07-31T14:11:27.825Z,16.70
2018-07-31T14:13:56.783Z,18.00
2018-07-31T14:16:25.296Z,17.90
2018-07-31T14:18:53.915Z,17.00
2018-07-31T14:21:22.484Z,17.70
2018-07-31T14:23:51.020Z,17.50
2018-07-31T14:26:19.545Z,15.50
2018-07-31T14:28:48.129Z,15.90
2018-07-31T14:31:16.598Z,16.40
2018-07-31T14:33:45.101Z,16.40
2018-07-31T14:36:13.646Z,16.70
2018-07-31T14:38:42.161Z,16.80
2018-07-31T14:41:10.728Z,15.90
2018-07-31T14:43:39.295Z,15.30
2018-07-31T14:46:08.075Z,17.90
2018-07-31T14:48:36.658Z,20.20
2018-07-31T14:51:05.209Z,18.10
2018-07-31T14:53:33.742Z,16.10
2018-07-31T14:56:02.314Z,16.60
2018-07-31T14:58:30.862Z,16.50
2018-07-31T15:00:59.352Z,15.30
2018-07-31T15:03:27.868Z,16.70
2018-07-31T15:05:56.799Z,16.80
2018-07-31T15:08:25.332Z,16.10
2018-07-31T15:10:53.917Z,15.60
2018-07-31T15:13:22.451Z,16.30
2018-07-31T15:18:19.405Z,16.70
2018-07-31T15:20:47.988Z,17.50
2018-07-31T15:23:16.509Z,16.60
2018-07-31T15:25:45.020Z,16.00
2018-07-31T15:28:13.558Z,15.90
2018-07-31T15:30:42.080Z,16.70
2018-07-31T15:33:10.597Z,16.70
2018-07-31T15:35:39.327Z,16.10
2018-07-31T15:38:07.848Z,15.90
2018-07-31T15:40:36.424Z,17.40
2018-07-31T15:43:04.930Z,17.30
2018-07-31T15:45:33.465Z,18.50
2018-07-31T15:48:02.031Z,16.70
2018-07-31T15:50:30.554Z,16.10
2018-07-31T15:52:59.565Z,16.40
2018-07-31T15:55:28.273Z,18.10
2018-07-31T15:57:56.833Z,17.40
2018-07-31T16:00:25.422Z,17.70
2018-07-31T16:02:53.867Z,16.70
2018-07-31T16:05:22.496Z,17.90
2018-07-31T16:07:51.204Z,18.60
2018-07-31T16:10:19.837Z,19.20
2018-07-31T16:12:48.383Z,21.10
2018-07-31T16:17:45.200Z,21.10
2018-07-31T16:20:13.737Z,21.80
2018-07-31T16:22:42.287Z,22.10
2018-07-31T16:25:10.826Z,21.50
2018-07-31T16:27:39.542Z,21.90
2018-07-31T16:30:08.214Z,23.10
2018-07-31T16:32:36.725Z,22.20
2018-07-31T16:35:05.329Z,23.40
2018-07-31T16:37:33.851Z,23.60
2018-07-31T16:40:02.396Z,22.70
2018-07-31T16:42:30.953Z,24.00
2018-07-31T16:44:59.480Z,24.30
2018-07-31T16:47:28.024Z,23.90
2018-07-31T16:49:56.708Z,24.60
2018-07-31T16:52:25.237Z,25.90
2018-07-31T16:54:53.992Z,26.50
2018-07-31T16:57:22.701Z,27.40
2018-07-31T16:59:51.283Z,28.10
2018-07-31T17:02:19.826Z,28.30
2018-07-31T17:04:48.385Z,27.70
2018-07-31T17:07:17.323Z,27.20
2018-07-31T17:12:14.121Z,28.70
2018-07-31T17:14:42.729Z,28.20
2018-07-31T17:17:11.328Z,28.20
2018-07-31T17:19:39.990Z,27.50
2018-07-31T17:22:08.584Z,27.40
2018-07-31T17:24:37.249Z,28.30
2018-07-31T17:27:06.079Z,28.10
2018-07-31T17:29:34.593Z,29.00
2018-07-31T17:32:03.218Z,29.00
2018-07-31T17:34:31.769Z,29.40
2018-07-31T17:37:00.267Z,30.20
2018-07-31T17:39:28.781Z,29.80
2018-07-31T17:41:57.335Z,29.20
2018-07-31T17:44:25.965Z,28.40
2018-07-31T17:46:54.487Z,28.20
2018-07-31T17:51:51.366Z,28.10
2018-07-31T17:54:19.914Z,28.90
2018-07-31T17:56:48.444Z,28.80
2018-07-31T17:59:17.000Z,29.10
2018-07-31T18:01:45.535Z,28.60
2018-07-31T18:04:14.071Z,28.90
2018-07-31T18:06:42.708Z,29.40
2018-07-31T18:09:11.881Z,30.10
2018-07-31T18:11:41.146Z,29.30
2018-07-31T18:16:38.238Z,29.30
2018-07-31T18:19:07.365Z,29.80
2018-07-31T18:21:35.898Z,30.00
2018-07-31T18:24:05.027Z,29.90
2018-07-31T18:26:33.608Z,30.00
2018-07-31T18:29:02.176Z,30.00
2018-07-31T18:31:30.733Z,30.40
2018-07-31T18:33:59.239Z,30.70
2018-07-31T18:36:28.046Z,30.50
2018-07-31T18:38:56.617Z,30.90
2018-07-31T18:41:25.270Z,31.60
2018-07-31T18:43:53.739Z,30.80
2018-07-31T18:46:22.257Z,31.50
2018-07-31T18:48:50.792Z,30.70
2018-07-31T18:51:19.449Z,31.60
2018-07-31T18:53:47.951Z,33.30
2018-07-31T18:56:16.478Z,33.70
2018-07-31T18:58:45.011Z,32.80
2018-07-31T19:01:13.766Z,33.80
2018-07-31T19:03:42.292Z,34.70
2018-07-31T19:06:10.785Z,34.60
2018-07-31T19:08:39.278Z,34.50
2018-07-31T19:11:07.845Z,34.70
2018-07-31T19:13:36.707Z,35.80
2018-07-31T19:16:06.062Z,36.60
2018-07-31T19:23:31.118Z,38.80
2018-07-31T19:25:59.645Z,40.00
2018-07-31T19:28:28.301Z,39.90
2018-07-31T19:30:56.805Z,41.20
2018-07-31T19:33:25.374Z,42.70
2018-07-31T19:35:53.896Z,43.70
2018-07-31T19:38:22.422Z,44.30
2018-07-31T19:40:50.973Z,44.80
2018-07-31T19:43:19.495Z,46.00
2018-07-31T19:45:47.999Z,44.70
2018-07-31T19:48:16.546Z,46.30
2018-07-31T19:50:45.163Z,46.40
2018-07-31T19:53:13.728Z,47.10
2018-07-31T19:55:42.237Z,48.00
2018-07-31T19:58:10.760Z,49.40
2018-07-31T20:00:39.312Z,50.30
2018-07-31T20:03:07.838Z,50.30
2018-07-31T20:05:36.338Z,51.40
2018-07-31T20:08:04.895Z,51.90
2018-07-31T20:10:33.541Z,52.20
2018-07-31T20:13:02.223Z,52.60
2018-07-31T20:15:30.813Z,53.10
2018-07-31T20:17:59.497Z,53.80
2018-07-31T20:20:28.028Z,54.90
2018-07-31T20:22:56.519Z,55.20
2018-07-31T20:25:25.102Z,54.80
2018-07-31T20:27:53.620Z,55.10
2018-07-31T20:30:22.171Z,55.30
2018-07-31T20:32:50.718Z,55.80
2018-07-31T20:35:19.236Z,56.50
2018-07-31T20:40:16.021Z,57.80
2018-07-31T20:42:44.576Z,57.90
2018-07-31T20:45:13.157Z,58.30
2018-07-31T20:47:41.680Z,59.80
2018-07-31T20:50:10.272Z,58.90
2018-07-31T20:52:38.829Z,58.90
2018-07-31T20:55:07.395Z,58.80
2018-07-31T20:57:35.935Z,58.50
2018-07-31T21:00:05.351Z,58.70
2018-07-31T21:02:34.028Z,60.30
2018-07-31T21:05:02.694Z,60.80
2018-07-31T21:07:31.227Z,60.70
2018-07-31T21:09:59.754Z,61.10
2018-07-31T21:12:28.448Z,61.40
2018-07-31T21:14:57.031Z,61.50
2018-07-31T21:17:25.540Z,61.60
2018-07-31T21:19:54.045Z,62.00
2018-07-31T21:22:22.674Z,63.10
2018-07-31T21:24:51.229Z,62.60
2018-07-31T21:27:20.337Z,63.40
2018-07-31T21:29:48.836Z,63.40
2018-07-31T21:32:17.362Z,63.60
2018-07-31T21:34:45.915Z,63.80
2018-07-31T21:37:14.434Z,64.80
2018-07-31T21:39:42.958Z,64.70
2018-07-31T21:42:11.481Z,64.50
2018-07-31T21:44:39.991Z,64.90
2018-07-31T21:47:08.562Z,66.00
2018-07-31T21:49:37.096Z,66.10
2018-07-31T21:52:05.641Z,65.90
2018-07-31T21:54:34.176Z,65.70
2018-07-31T21:57:02.723Z,65.70
2018-07-31T21:59:31.574Z,66.40
2018-07-31T22:02:00.178Z,68.50
2018-07-31T22:04:28.810Z,68.30
2018-07-31T22:06:57.332Z,67.30
2018-07-31T22:09:31.739Z,66.90
2018-07-31T22:12:00.824Z,68.00
2018-07-31T22:14:29.361Z,67.10
2018-07-31T22:16:57.885Z,68.80
2018-07-31T22:19:26.483Z,69.60
2018-07-31T22:21:55.035Z,67.60
2018-07-31T22:24:23.595Z,68.80
2018-07-31T22:26:52.111Z,69.80
2018-07-31T22:29:20.622Z,71.00
2018-07-31T22:31:49.291Z,72.90
2018-07-31T22:34:17.822Z,73.30
2018-07-31T22:36:46.388Z,70.50
2018-07-31T22:39:14.956Z,69.70
2018-07-31T22:41:43.481Z,73.30
2018-07-31T22:44:11.998Z,73.40
2018-07-31T22:46:40.532Z,74.40
2018-07-31T22:49:09.062Z,74.60
2018-07-31T22:51:37.571Z,76.60
2018-07-31T22:54:06.136Z,77.60
2018-07-31T22:56:34.680Z,76.90
2018-07-31T22:59:03.250Z,78.10
2018-07-31T23:04:00.372Z,80.20
2018-07-31T23:06:28.908Z,80.20
2018-07-31T23:08:57.513Z,80.70
2018-07-31T23:11:26.095Z,80.40
2018-07-31T23:13:54.611Z,81.00
2018-07-31T23:16:23.153Z,81.60
2018-07-31T23:18:51.692Z,82.50
2018-07-31T23:21:20.293Z,82.10
2018-07-31T23:23:48.822Z,83.60
2018-07-31T23:26:17.432Z,84.80
2018-07-31T23:28:45.921Z,85.40
2018-07-31T23:31:14.474Z,86.50
2018-07-31T23:33:42.992Z,87.10
2018-07-31T23:36:11.555Z,86.70
2018-07-31T23:38:40.104Z,88.80
2018-07-31T23:41:08.654Z,89.90
2018-07-31T23:43:37.196Z,90.20
2018-07-31T23:46:05.784Z,91.60
2018-07-31T23:48:34.403Z,92.80
2018-07-31T23:51:02.911Z,93.30
2018-07-31T23:53:31.441Z,93.20
2018-07-31T23:55:59.956Z,93.60
2018-07-31T23:58:28.485Z,92.30
